createdAt,value
2023-01-02T00:01:43.102Z,35.75
2023-01-02T00:06:44.726Z,30.73
2023-01-02T00:11:46.349Z,31.35
2023-01-02T00:16:47.988Z,31.88
2023-01-02T00:21:49.579Z,36.88
2023-01-02T00:26:51.158Z,33.72
2023-01-02T00:31:53.011Z,29.75
2023-01-02T00:36:54.619Z,28.77
2023-01-02T00:41:56.228Z,31.83
2023-01-02T00:46:57.839Z,33.42
2023-01-02T00:51:59.497Z,32.70
2023-01-02T00:57:01.186Z,32.97
2023-01-02T01:02:02.971Z,29.73
2023-01-02T01:07:04.653Z,29.20
2023-01-02T01:12:06.362Z,32.20
2023-01-02T01:17:08.036Z,28.63
2023-01-02T01:22:09.607Z,30.65
2023-01-02T01:27:11.238Z,28.15
2023-01-02T01:32:13.954Z,33.67
2023-01-02T01:37:15.824Z,30.13
2023-01-02T01:42:18.462Z,27.13
2023-01-02T01:47:25.764Z,29.05
2023-01-02T01:52:29.927Z,31.08
2023-01-02T01:57:42.557Z,27.15
2023-01-02T02:02:48.320Z,28.30
2023-01-02T02:08:16.459Z,26.60
2023-01-02T02:13:19.076Z,28.98
2023-01-02T02:18:23.402Z,27.65
2023-01-02T02:23:47.104Z,28.60
2023-01-02T02:29:17.065Z,28.65
2023-01-02T02:34:37.190Z,27.83
2023-01-02T02:40:12.126Z,28.90
2023-01-02T02:45:24.162Z,28.02
2023-01-02T02:50:39.867Z,29.00
2023-01-02T02:55:47.822Z,31.35
2023-01-02T03:00:49.741Z,29.37
2023-01-02T03:06:10.645Z,31.10
2023-01-02T03:11:15.307Z,27.15
2023-01-02T03:16:24.832Z,24.45
2023-01-02T03:21:37.041Z,26.67
2023-01-02T03:26:45.626Z,25.88
2023-01-02T03:31:53.861Z,26.80
2023-01-02T03:37:00.252Z,25.47
2023-01-02T03:42:04.906Z,24.77
2023-01-02T03:47:23.200Z,28.13
2023-01-02T03:52:26.269Z,25.90
2023-01-02T03:57:38.688Z,24.90
2023-01-02T04:03:09.205Z,23.88
2023-01-02T04:08:22.776Z,24.75
2023-01-02T04:13:38.098Z,22.80
2023-01-02T04:18:46.866Z,21.85
2023-01-02T04:24:03.494Z,24.58
2023-01-02T04:29:05.355Z,23.98
2023-01-02T04:34:11.322Z,21.83
2023-01-02T04:39:13.270Z,21.73
2023-01-02T04:44:15.091Z,21.83
2023-01-02T04:49:16.732Z,22.25
2023-01-02T04:54:18.333Z,20.23
2023-01-02T04:59:19.967Z,21.27
2023-01-02T05:04:21.567Z,21.60
2023-01-02T05:09:23.195Z,20.48
2023-01-02T05:14:24.865Z,21.10
2023-01-02T05:19:26.604Z,21.13
2023-01-02T05:24:28.346Z,20.17
2023-01-02T05:29:29.945Z,24.30
2023-01-02T05:34:31.517Z,19.83
2023-01-02T05:39:33.123Z,20.35
2023-01-02T05:44:34.852Z,20.42
2023-01-02T05:49:36.458Z,21.58
2023-01-02T05:54:38.116Z,21.63
2023-01-02T05:59:39.674Z,21.63
2023-01-02T06:04:41.289Z,20.50
2023-01-02T06:09:42.885Z,18.52
2023-01-02T06:14:44.729Z,17.20
2023-01-02T06:19:53.548Z,17.95
2023-01-02T06:24:55.636Z,17.42
2023-01-02T06:29:57.261Z,18.40
2023-01-02T06:34:58.887Z,18.60
2023-01-02T06:40:00.490Z,18.13
2023-01-02T06:45:02.327Z,16.50
2023-01-02T06:50:04.427Z,20.00
2023-01-02T06:55:06.451Z,17.30
2023-01-02T07:00:08.768Z,24.10
2023-01-02T07:05:10.849Z,19.75
2023-01-02T07:10:12.497Z,18.58
2023-01-02T07:15:14.092Z,20.02
2023-01-02T07:20:16.108Z,20.00
2023-01-02T07:25:22.067Z,18.17
2023-01-02T07:30:23.778Z,19.80
2023-01-02T07:35:25.490Z,18.02
2023-01-02T07:40:31.930Z,20.00
2023-01-02T07:45:35.088Z,17.42
2023-01-02T07:50:36.779Z,18.60
2023-01-02T07:55:38.365Z,19.17
2023-01-02T08:00:40.162Z,18.40
2023-01-02T08:05:41.759Z,16.50
2023-01-02T08:10:43.936Z,19.45
2023-01-02T08:15:47.477Z,17.27
2023-01-02T08:20:49.074Z,17.73
2023-01-02T08:25:55.672Z,17.35
2023-01-02T08:31:00.333Z,18.95
2023-01-02T08:36:02.024Z,18.42
2023-01-02T08:41:03.973Z,15.82
2023-01-02T08:46:07.401Z,16.50
2023-01-02T08:51:10.134Z,18.13
2023-01-02T08:56:20.100Z,17.70
2023-01-02T09:01:23.760Z,16.45
2023-01-02T09:06:28.202Z,17.50
2023-01-02T09:11:33.238Z,17.58
2023-01-02T09:16:34.854Z,19.77
2023-01-02T09:21:36.474Z,18.02
2023-01-02T09:26:38.179Z,18.55
2023-01-02T09:31:40.552Z,16.85
2023-01-02T09:36:42.243Z,16.42
2023-01-02T09:41:49.498Z,19.92
2023-01-02T09:47:00.628Z,18.42
2023-01-02T09:52:02.410Z,17.58
2023-01-02T09:57:29.129Z,17.10
2023-01-02T10:02:51.156Z,15.77
2023-01-02T10:08:31.788Z,16.85
2023-01-02T10:14:17.502Z,17.13
2023-01-02T10:19:14.499Z,17.48
2023-01-02T10:24:39.008Z,19.85
2023-01-02T10:29:47.319Z,18.35
2023-01-02T10:35:04.178Z,17.77
2023-01-02T10:40:08.192Z,17.10
2023-01-02T10:45:16.187Z,16.23
2023-01-02T10:50:22.140Z,18.57
2023-01-02T10:55:37.157Z,16.83
2023-01-02T11:00:38.842Z,15.05
2023-01-02T11:05:47.515Z,13.85
2023-01-02T11:10:50.987Z,13.82
2023-01-02T11:15:57.815Z,15.25
2023-01-02T11:21:05.172Z,12.95
2023-01-02T11:26:23.110Z,12.85
2023-01-02T11:31:24.970Z,13.07
2023-01-02T11:36:27.700Z,14.30
2023-01-02T11:41:49.295Z,14.02
2023-01-02T11:46:53.042Z,15.45
2023-01-02T11:52:05.336Z,14.38
2023-01-02T11:57:18.543Z,14.45
2023-01-02T12:02:27.250Z,14.88
2023-01-02T12:07:46.819Z,14.77
2023-01-02T12:13:00.378Z,14.07
2023-01-02T12:18:28.056Z,13.80
2023-01-02T12:23:46.154Z,15.02
2023-01-02T12:29:48.233Z,14.95
2023-01-02T12:34:53.537Z,14.40
2023-01-02T12:40:10.108Z,14.88
2023-01-02T12:45:35.815Z,14.88
2023-01-02T12:51:08.054Z,15.77
2023-01-02T12:56:18.825Z,13.30
2023-01-02T13:01:29.549Z,14.73
2023-01-02T13:07:16.230Z,13.90
2023-01-02T13:12:27.446Z,14.48
2023-01-02T13:17:44.255Z,14.48
2023-01-02T13:23:05.273Z,15.82
2023-01-02T13:28:12.170Z,14.38
2023-01-02T13:33:22.866Z,14.82
2023-01-02T13:38:29.152Z,14.77
2023-01-02T13:43:33.479Z,17.55
2023-01-02T13:48:44.370Z,16.50
2023-01-02T13:53:48.489Z,13.05
2023-01-02T13:58:56.008Z,15.57
2023-01-02T14:04:09.941Z,16.05
2023-01-02T14:09:20.709Z,16.23
2023-01-02T14:14:42.711Z,16.73
2023-01-02T14:19:45.223Z,17.25
2023-01-02T14:24:50.357Z,15.60
2023-01-02T14:30:07.431Z,18.27
2023-01-02T14:35:34.944Z,21.50
2023-01-02T14:40:42.371Z,18.52
2023-01-02T14:45:48.839Z,15.50
2023-01-02T14:50:51.241Z,15.98
2023-01-02T14:56:03.127Z,16.13
2023-01-02T15:01:06.876Z,17.55
2023-01-02T15:06:20.076Z,20.65
2023-01-02T15:11:43.318Z,19.25
2023-01-02T15:16:55.953Z,21.73
2023-01-02T15:21:57.949Z,19.52
2023-01-02T15:27:26.393Z,19.98
2023-01-02T15:32:32.308Z,16.95
2023-01-02T15:37:34.029Z,17.85
2023-01-02T15:42:55.763Z,18.67
2023-01-02T15:47:58.357Z,20.70
2023-01-02T15:53:09.335Z,22.23
2023-01-02T15:58:17.424Z,21.27
2023-01-02T16:04:01.887Z,22.02
2023-01-02T16:09:01.513Z,25.25
2023-01-02T16:14:19.103Z,23.80
2023-01-02T16:19:26.567Z,24.67
2023-01-02T16:24:28.651Z,23.60
2023-01-02T16:29:30.352Z,24.35
2023-01-02T16:34:36.810Z,22.83
2023-01-02T16:39:46.085Z,21.98
2023-01-02T16:44:55.291Z,22.83
2023-01-02T16:49:57.175Z,22.25
2023-01-02T16:54:58.806Z,22.85
2023-01-02T17:00:00.394Z,31.23
2023-01-02T17:05:10.014Z,28.83
2023-01-02T17:10:12.042Z,24.65
2023-01-02T17:15:15.510Z,24.20
2023-01-02T17:20:17.239Z,27.40
2023-01-02T17:25:19.121Z,28.83
2023-01-02T17:30:21.291Z,37.47
2023-01-02T17:35:23.058Z,29.67
2023-01-02T17:40:24.677Z,31.08
2023-01-02T17:45:26.676Z,29.80
2023-01-02T17:50:28.737Z,32.60
2023-01-02T17:55:30.415Z,31.67
2023-01-02T18:00:32.028Z,35.97
2023-01-02T18:05:35.788Z,33.47
2023-01-02T18:10:38.616Z,35.63
2023-01-02T18:15:40.199Z,37.95
2023-01-02T18:20:45.103Z,38.00
2023-01-02T18:25:46.903Z,35.50
2023-01-02T18:30:52.832Z,31.27
2023-01-02T18:36:02.766Z,30.33
2023-01-02T18:41:31.613Z,29.75
2023-01-02T18:47:04.611Z,29.57
2023-01-02T18:52:18.404Z,30.17
2023-01-02T18:57:23.054Z,31.90
2023-01-02T19:02:37.187Z,33.10
2023-01-02T19:07:39.418Z,30.45
2023-01-02T19:13:07.586Z,31.73
2023-01-02T19:18:18.516Z,29.42
2023-01-02T19:23:58.284Z,29.85
2023-01-02T19:29:08.944Z,28.13
2023-01-02T19:34:37.283Z,26.65
2023-01-02T19:39:44.584Z,24.20
2023-01-02T19:44:46.673Z,21.10
2023-01-02T19:49:48.769Z,22.27
2023-01-02T19:54:52.346Z,19.92
2023-01-02T19:59:59.012Z,17.25
2023-01-02T20:05:00.688Z,20.85
2023-01-02T20:10:02.401Z,17.63
2023-01-02T20:15:11.424Z,17.40
2023-01-02T20:20:19.820Z,12.20
2023-01-02T20:25:24.596Z,17.73
2023-01-02T20:30:26.553Z,22.27
2023-01-02T20:35:29.010Z,20.40
2023-01-02T20:40:30.866Z,15.80
2023-01-02T20:45:32.704Z,16.38
2023-01-02T20:50:34.489Z,15.52
2023-01-02T20:55:37.687Z,15.57
2023-01-02T21:00:39.326Z,17.88
2023-01-02T21:05:41.398Z,16.73
2023-01-02T21:10:43.086Z,16.70
2023-01-02T21:15:49.545Z,15.48
2023-01-02T21:20:57.717Z,16.23
2023-01-02T21:25:59.888Z,16.57
2023-01-02T21:31:02.452Z,16.80
2023-01-02T21:36:08.342Z,20.98
2023-01-02T21:41:30.074Z,19.25
2023-01-02T21:46:31.780Z,20.30
2023-01-02T21:51:34.331Z,21.77
2023-01-02T21:56:36.002Z,21.17
2023-01-02T22:01:37.708Z,21.38
2023-01-02T22:07:04.382Z,20.52
2023-01-02T22:12:02.107Z,19.30
2023-01-02T22:17:07.816Z,21.30
2023-01-02T22:22:09.465Z,23.30
2023-01-02T22:27:15.361Z,23.30
2023-01-02T22:32:17.355Z,20.88
2023-01-02T22:37:22.600Z,19.83
2023-01-02T22:43:03.865Z,19.38
2023-01-02T22:48:15.649Z,20.60
2023-01-02T22:53:24.520Z,23.83
2023-01-02T22:58:26.489Z,23.33
2023-01-02T23:03:37.980Z,22.35
2023-01-02T23:08:39.768Z,21.92
2023-01-02T23:13:42.278Z,22.80
2023-01-02T23:19:03.274Z,20.13
2023-01-02T23:24:06.211Z,21.90
2023-01-02T23:29:09.131Z,19.88
2023-01-02T23:34:12.840Z,20.30
2023-01-02T23:39:16.939Z,21.63
2023-01-02T23:44:20.491Z,19.73
2023-01-02T23:49:23.711Z,21.33
2023-01-02T23:54:25.439Z,21.75
2023-01-02T23:59:27.374Z,23.13
